createdAt,value
2018-01-15T00:00:50.885Z,24.20
2018-01-15T00:01:50.756Z,23.70
2018-01-15T00:02:50.818Z,22.60
2018-01-15T00:03:50.704Z,23.10
2018-01-15T00:04:50.693Z,25.60
2018-01-15T00:05:50.655Z,23.70
2018-01-15T00:06:50.639Z,24.80
2018-01-15T00:07:50.610Z,23.90
2018-01-15T00:08:50.591Z,23.60
2018-01-15T00:09:50.564Z,24.30
2018-01-15T00:10:50.540Z,24.00
2018-01-15T00:11:50.519Z,23.20
2018-01-15T00:12:50.487Z,23.40
2018-01-15T00:13:50.462Z,24.30
2018-01-15T00:14:50.449Z,23.90
2018-01-15T00:15:50.422Z,26.00
2018-01-15T00:16:50.414Z,23.00
2018-01-15T00:17:50.363Z,21.50
2018-01-15T00:18:50.350Z,25.10
2018-01-15T00:19:50.317Z,23.50
2018-01-15T00:20:50.295Z,23.40
2018-01-15T00:21:50.273Z,23.50
2018-01-15T00:22:50.245Z,22.00
2018-01-15T00:23:50.218Z,24.50
2018-01-15T00:24:50.202Z,23.80
2018-01-15T00:25:50.170Z,22.90
2018-01-15T00:26:50.151Z,22.80
2018-01-15T00:27:50.122Z,25.50
2018-01-15T00:28:50.095Z,23.60
2018-01-15T00:29:50.071Z,24.10
2018-01-15T00:30:50.049Z,23.20
2018-01-15T00:31:50.031Z,24.30
2018-01-15T00:32:49.998Z,23.40
2018-01-15T00:33:49.975Z,24.10
2018-01-15T00:34:49.950Z,23.60
2018-01-15T00:35:49.933Z,23.90
2018-01-15T00:36:49.908Z,25.30
2018-01-15T00:37:49.878Z,24.30
2018-01-15T00:38:49.856Z,23.30
2018-01-15T00:39:49.834Z,22.50
2018-01-15T00:40:49.810Z,21.80
2018-01-15T00:41:49.792Z,23.50
2018-01-15T00:42:49.758Z,25.40
2018-01-15T00:43:49.735Z,23.90
2018-01-15T00:44:49.710Z,24.20
2018-01-15T00:45:49.686Z,24.60
2018-01-15T00:46:49.660Z,21.70
2018-01-15T00:47:49.640Z,22.10
2018-01-15T00:48:49.611Z,26.00
2018-01-15T00:49:49.590Z,24.50
2018-01-15T00:50:49.564Z,24.50
2018-01-15T00:51:49.538Z,24.60
2018-01-15T00:52:49.524Z,23.40
2018-01-15T00:53:49.490Z,24.40
2018-01-15T00:54:49.470Z,24.70
2018-01-15T00:55:49.450Z,24.20
2018-01-15T00:56:49.421Z,25.60
2018-01-15T00:57:49.397Z,25.80
2018-01-15T00:58:49.370Z,22.90
2018-01-15T00:59:49.344Z,24.30
2018-01-15T01:00:49.321Z,24.60
2018-01-15T01:01:49.298Z,25.10
2018-01-15T01:02:49.280Z,27.10
2018-01-15T01:03:49.253Z,25.30
2018-01-15T01:04:49.227Z,25.60
2018-01-15T01:05:49.208Z,24.80
2018-01-15T01:06:49.177Z,23.60
2018-01-15T01:07:49.163Z,26.70
2018-01-15T01:08:49.132Z,25.60
2018-01-15T01:09:49.112Z,23.80
2018-01-15T01:10:49.080Z,25.80
2018-01-15T01:11:49.112Z,24.40
2018-01-15T01:12:49.041Z,26.20
2018-01-15T01:13:49.014Z,26.70
2018-01-15T01:14:48.988Z,23.20
2018-01-15T01:15:48.970Z,24.10
2018-01-15T01:16:48.940Z,24.70
2018-01-15T01:17:48.971Z,26.50
2018-01-15T01:18:48.890Z,23.70
2018-01-15T01:19:48.917Z,26.70
2018-01-15T01:20:48.845Z,23.90
2018-01-15T01:21:48.871Z,25.20
2018-01-15T01:22:48.797Z,25.30
2018-01-15T01:23:48.825Z,24.80
2018-01-15T01:24:48.750Z,25.20
2018-01-15T01:25:48.729Z,24.90
2018-01-15T01:26:48.708Z,26.50
2018-01-15T01:27:48.680Z,28.00
2018-01-15T01:28:48.659Z,23.80
2018-01-15T01:29:48.638Z,25.20
2018-01-15T01:30:48.621Z,25.60
2018-01-15T01:31:48.668Z,24.50
2018-01-15T01:32:48.562Z,24.30
2018-01-15T01:33:48.643Z,25.80
2018-01-15T01:34:48.512Z,24.50
2018-01-15T01:35:48.540Z,25.80
2018-01-15T01:36:48.469Z,25.30
2018-01-15T01:37:48.442Z,25.10
2018-01-15T01:38:48.417Z,24.20
2018-01-15T01:39:48.402Z,27.10
2018-01-15T01:40:48.370Z,23.80
2018-01-15T01:41:48.350Z,24.70
2018-01-15T01:42:48.322Z,26.30
2018-01-15T01:43:48.335Z,25.80
2018-01-15T01:44:48.280Z,24.10
2018-01-15T01:45:48.259Z,25.80
2018-01-15T01:46:48.231Z,25.00
2018-01-15T01:47:48.211Z,24.30
2018-01-15T01:48:48.191Z,26.50
2018-01-15T01:49:48.160Z,26.90
2018-01-15T01:50:48.140Z,24.10
2018-01-15T01:51:48.113Z,26.70
2018-01-15T01:52:48.096Z,26.80
2018-01-15T01:53:48.068Z,26.60
2018-01-15T01:54:48.048Z,28.20
2018-01-15T01:55:48.019Z,25.60
2018-01-15T01:56:47.997Z,27.50
2018-01-15T01:57:47.971Z,24.20
2018-01-15T01:58:47.951Z,28.50
2018-01-15T01:59:47.935Z,27.80
2018-01-15T02:00:47.901Z,23.90
2018-01-15T02:01:47.882Z,26.20
2018-01-15T02:02:47.860Z,25.00
2018-01-15T02:03:47.831Z,27.60
2018-01-15T02:04:47.811Z,26.40
2018-01-15T02:05:47.785Z,25.90
2018-01-15T02:06:47.761Z,25.90
2018-01-15T02:07:47.738Z,27.20
2018-01-15T02:08:47.723Z,26.20
2018-01-15T02:09:47.689Z,24.40
2018-01-15T02:10:47.671Z,25.70
2018-01-15T02:11:47.641Z,26.80
2018-01-15T02:12:47.622Z,25.30
2018-01-15T02:13:47.594Z,25.80
2018-01-15T02:14:47.570Z,26.30
2018-01-15T02:15:47.549Z,25.30
2018-01-15T02:16:47.527Z,24.70
2018-01-15T02:17:47.504Z,25.50
2018-01-15T02:18:47.482Z,26.30
2018-01-15T02:19:47.460Z,28.10
2018-01-15T02:20:47.431Z,26.00
2018-01-15T02:21:47.408Z,24.40
2018-01-15T02:22:47.383Z,25.20
2018-01-15T02:23:47.361Z,27.10
2018-01-15T02:24:47.336Z,24.80
2018-01-15T02:25:47.311Z,24.60
2018-01-15T02:26:47.288Z,25.10
2018-01-15T02:27:47.262Z,28.20
2018-01-15T02:28:47.238Z,25.10
2018-01-15T02:29:47.218Z,23.20
2018-01-15T02:30:47.193Z,23.90
2018-01-15T02:31:47.170Z,25.20
2018-01-15T02:32:47.153Z,25.50
2018-01-15T02:33:47.120Z,26.50
2018-01-15T02:34:47.097Z,26.30
2018-01-15T02:35:47.080Z,25.20
2018-01-15T02:36:47.053Z,27.00
2018-01-15T02:37:47.029Z,25.40
2018-01-15T02:38:47.003Z,26.80
2018-01-15T02:39:46.979Z,27.20
2018-01-15T02:40:46.956Z,26.80
2018-01-15T02:41:46.930Z,26.90
2018-01-15T02:42:46.907Z,26.30
2018-01-15T02:43:46.891Z,28.60
2018-01-15T02:44:46.863Z,24.70
2018-01-15T02:45:46.838Z,26.50
2018-01-15T02:46:46.815Z,25.00
2018-01-15T02:47:46.791Z,26.10
2018-01-15T02:48:46.770Z,26.20
2018-01-15T02:49:46.741Z,25.70
2018-01-15T02:50:46.721Z,27.00
2018-01-15T02:51:46.703Z,25.20
2018-01-15T02:52:46.681Z,26.80
2018-01-15T02:53:46.648Z,27.10
2018-01-15T02:54:46.627Z,27.60
2018-01-15T02:55:46.600Z,25.00
2018-01-15T02:56:46.578Z,24.80
2018-01-15T02:57:46.554Z,25.80
2018-01-15T02:58:46.529Z,27.10
2018-01-15T02:59:46.511Z,25.00
2018-01-15T03:00:46.486Z,26.70
2018-01-15T03:01:46.458Z,25.60
2018-01-15T03:02:46.440Z,25.50
2018-01-15T03:03:46.421Z,25.60
2018-01-15T03:04:46.391Z,27.30
2018-01-15T03:05:46.370Z,25.20
2018-01-15T03:06:46.349Z,26.40
2018-01-15T03:07:46.320Z,24.70
2018-01-15T03:08:46.550Z,25.60
2018-01-15T03:09:46.275Z,26.30
2018-01-15T03:10:46.250Z,27.10
2018-01-15T03:11:46.225Z,23.30
2018-01-15T03:12:46.202Z,27.30
2018-01-15T03:13:46.178Z,25.90
2018-01-15T03:14:46.157Z,24.90
2018-01-15T03:15:46.131Z,25.40
2018-01-15T03:16:46.107Z,25.50
2018-01-15T03:17:46.088Z,28.50
2018-01-15T03:18:46.066Z,27.70
2018-01-15T03:19:46.041Z,25.00
2018-01-15T03:20:46.016Z,25.10
2018-01-15T03:21:45.991Z,25.70
2018-01-15T03:22:45.967Z,25.30
2018-01-15T03:23:45.944Z,26.80
2018-01-15T03:24:45.920Z,25.20
2018-01-15T03:25:45.897Z,26.20
2018-01-15T03:26:45.873Z,25.70
2018-01-15T03:27:45.858Z,27.80
2018-01-15T03:28:45.830Z,25.30
2018-01-15T03:29:45.811Z,23.20
2018-01-15T03:30:45.792Z,28.70
2018-01-15T03:31:45.761Z,25.20
2018-01-15T03:32:45.736Z,25.10
2018-01-15T03:33:45.709Z,25.40
2018-01-15T03:34:45.739Z,27.60
2018-01-15T03:35:45.666Z,23.90
2018-01-15T03:36:45.645Z,27.50
2018-01-15T03:37:45.618Z,27.20
2018-01-15T03:38:45.598Z,26.10
2018-01-15T03:39:45.570Z,24.00
2018-01-15T03:40:45.551Z,27.10
2018-01-15T03:41:45.528Z,25.70
2018-01-15T03:42:45.614Z,25.80
2018-01-15T03:43:45.476Z,25.00
2018-01-15T03:44:45.460Z,25.10
2018-01-15T03:45:45.431Z,24.90
2018-01-15T03:46:45.414Z,25.20
2018-01-15T03:47:45.383Z,23.30
2018-01-15T03:48:45.361Z,27.10
2018-01-15T03:49:45.341Z,25.50
2018-01-15T03:50:45.309Z,24.80
2018-01-15T03:51:45.289Z,26.80
2018-01-15T03:52:45.270Z,25.90
2018-01-15T03:53:45.238Z,26.30
2018-01-15T03:54:45.216Z,26.50
2018-01-15T03:55:45.193Z,25.00
2018-01-15T03:56:45.170Z,24.80
2018-01-15T03:57:45.159Z,26.90
2018-01-15T03:58:45.121Z,24.20
2018-01-15T03:59:45.100Z,25.10
2018-01-15T04:00:45.078Z,28.20
2018-01-15T04:01:45.058Z,27.10
2018-01-15T04:02:45.030Z,27.90
2018-01-15T04:03:45.008Z,27.20
2018-01-15T04:04:44.980Z,29.80
2018-01-15T04:05:44.960Z,26.70
2018-01-15T04:06:44.930Z,25.90
2018-01-15T04:07:44.907Z,27.40
2018-01-15T04:08:44.881Z,24.30
2018-01-15T04:09:44.860Z,25.80
2018-01-15T04:10:44.836Z,26.90
2018-01-15T04:11:44.809Z,25.80
2018-01-15T04:12:44.788Z,26.90
2018-01-15T04:13:44.763Z,27.70
2018-01-15T04:14:44.740Z,26.70
2018-01-15T04:15:44.714Z,24.50
2018-01-15T04:16:44.690Z,26.30
2018-01-15T04:17:44.663Z,24.90
2018-01-15T04:18:44.648Z,25.20
2018-01-15T04:19:44.616Z,25.40
2018-01-15T04:20:44.602Z,25.90
2018-01-15T04:21:44.570Z,27.80
2018-01-15T04:22:44.549Z,24.60
2018-01-15T04:23:44.521Z,26.70
2018-01-15T04:24:44.501Z,28.90
2018-01-15T04:25:44.480Z,24.30
2018-01-15T04:26:44.458Z,25.30
2018-01-15T04:27:44.428Z,24.40
2018-01-15T04:28:44.408Z,24.70
2018-01-15T04:29:44.379Z,24.70
2018-01-15T04:30:44.360Z,27.00
2018-01-15T04:31:44.332Z,27.70
2018-01-15T04:32:44.310Z,25.40
2018-01-15T04:33:44.289Z,26.50
2018-01-15T04:34:44.268Z,27.30
2018-01-15T04:35:44.239Z,24.10
2018-01-15T04:36:44.212Z,24.40
2018-01-15T04:37:44.189Z,28.30
2018-01-15T04:38:44.168Z,26.80
2018-01-15T04:39:44.141Z,26.80
2018-01-15T04:40:44.118Z,25.70
2018-01-15T04:41:44.100Z,26.20
2018-01-15T04:42:44.068Z,25.70
2018-01-15T04:43:44.053Z,24.60
2018-01-15T04:44:44.022Z,23.90
2018-01-15T04:45:44.000Z,25.60
2018-01-15T04:46:43.979Z,27.60
2018-01-15T04:47:44.012Z,26.20
2018-01-15T04:48:43.932Z,27.00
2018-01-15T04:49:43.913Z,24.70
2018-01-15T04:50:43.877Z,24.20
2018-01-15T04:51:43.859Z,27.10
2018-01-15T04:52:43.839Z,26.20
2018-01-15T04:53:43.808Z,27.40
2018-01-15T04:54:43.789Z,29.10
2018-01-15T04:55:43.764Z,26.50
2018-01-15T04:56:43.738Z,26.60
2018-01-15T04:57:43.729Z,26.10
2018-01-15T04:58:43.689Z,26.20
2018-01-15T04:59:43.668Z,28.70
2018-01-15T05:00:43.639Z,24.90
2018-01-15T05:01:43.720Z,26.00
2018-01-15T05:02:43.599Z,26.90
2018-01-15T05:03:43.669Z,25.70
2018-01-15T05:04:43.549Z,28.50
2018-01-15T05:05:43.630Z,27.30
2018-01-15T05:06:43.500Z,29.50
2018-01-15T05:07:43.582Z,26.60
2018-01-15T05:08:43.458Z,26.50
2018-01-15T05:09:43.428Z,24.90
2018-01-15T05:10:43.404Z,27.20
2018-01-15T05:11:43.477Z,27.50
2018-01-15T05:12:43.354Z,26.40
2018-01-15T05:13:43.338Z,26.60
2018-01-15T05:14:43.316Z,27.60
2018-01-15T05:15:43.290Z,25.40
2018-01-15T05:16:43.264Z,27.30
2018-01-15T05:17:43.240Z,28.30
2018-01-15T05:18:43.218Z,27.80
2018-01-15T05:19:43.196Z,25.90
2018-01-15T05:20:43.168Z,27.00
2018-01-15T05:21:43.148Z,27.00
2018-01-15T05:22:43.122Z,26.10
2018-01-15T05:23:43.098Z,28.80
2018-01-15T05:24:43.077Z,25.50
2018-01-15T05:25:43.046Z,29.20
2018-01-15T05:26:43.035Z,26.50
2018-01-15T05:27:43.001Z,25.20
2018-01-15T05:28:42.978Z,27.40
2018-01-15T05:29:42.951Z,27.30
2018-01-15T05:30:42.930Z,24.20
2018-01-15T05:31:42.910Z,24.80
2018-01-15T05:32:42.879Z,25.10
2018-01-15T05:33:42.853Z,27.30
2018-01-15T05:34:42.830Z,25.40
2018-01-15T05:35:42.810Z,27.10
2018-01-15T05:36:42.786Z,27.90
2018-01-15T05:37:42.769Z,27.10
2018-01-15T05:38:42.738Z,23.90
2018-01-15T05:39:42.716Z,26.90
2018-01-15T05:40:42.689Z,27.10
2018-01-15T05:41:42.669Z,29.30
2018-01-15T05:42:42.650Z,27.50
2018-01-15T05:43:42.620Z,27.10
2018-01-15T05:44:42.604Z,25.70
2018-01-15T05:45:42.575Z,25.90
2018-01-15T05:46:42.549Z,25.00
2018-01-15T05:47:42.533Z,26.20
2018-01-15T05:48:42.510Z,26.40
2018-01-15T05:49:42.477Z,29.40
2018-01-15T05:50:42.459Z,26.20
2018-01-15T05:51:42.429Z,26.60
2018-01-15T05:52:42.410Z,26.30
2018-01-15T05:53:42.389Z,25.70
2018-01-15T05:54:42.360Z,27.60
2018-01-15T05:55:42.339Z,26.60
2018-01-15T05:56:42.317Z,28.50
2018-01-15T05:57:42.290Z,27.60
2018-01-15T05:58:42.268Z,27.30
2018-01-15T05:59:42.249Z,23.80
2018-01-15T06:00:42.221Z,26.80
2018-01-15T06:01:42.211Z,26.60
2018-01-15T06:02:42.181Z,27.10
2018-01-15T06:03:42.149Z,25.10
2018-01-15T06:04:42.126Z,27.20
2018-01-15T06:05:42.113Z,24.70
2018-01-15T06:06:42.079Z,26.20
2018-01-15T06:07:42.059Z,24.60
2018-01-15T06:08:42.035Z,25.70
2018-01-15T06:09:42.010Z,29.40
2018-01-15T06:10:41.989Z,28.50
2018-01-15T06:11:41.974Z,30.70
2018-01-15T06:12:41.950Z,27.30
2018-01-15T06:13:41.916Z,28.40
2018-01-15T06:14:41.890Z,26.10
2018-01-15T06:15:41.871Z,29.00
2018-01-15T06:16:41.845Z,28.90
2018-01-15T06:17:41.822Z,26.80
2018-01-15T06:18:41.801Z,25.70
2018-01-15T06:19:41.774Z,25.70
2018-01-15T06:20:41.748Z,25.00
2018-01-15T06:21:41.734Z,26.80
2018-01-15T06:22:41.747Z,25.40
2018-01-15T06:23:41.680Z,26.20
2018-01-15T06:24:41.659Z,24.40
2018-01-15T06:25:41.637Z,27.30
2018-01-15T06:26:41.610Z,25.60
2018-01-15T06:27:41.588Z,25.20
2018-01-15T06:28:41.567Z,26.90
2018-01-15T06:29:41.536Z,22.60
2018-01-15T06:30:41.529Z,25.10
2018-01-15T06:31:41.498Z,25.90
2018-01-15T06:32:41.471Z,25.80
2018-01-15T06:33:41.449Z,24.50
2018-01-15T06:34:41.427Z,25.10
2018-01-15T06:35:41.399Z,25.10
2018-01-15T06:36:41.380Z,25.90
2018-01-15T06:37:41.355Z,25.70
2018-01-15T06:38:41.328Z,25.30
2018-01-15T06:39:41.308Z,24.30
2018-01-15T06:40:41.280Z,25.70
2018-01-15T06:41:41.259Z,24.00
2018-01-15T06:42:41.241Z,25.20
2018-01-15T06:43:41.229Z,24.40
2018-01-15T06:44:41.190Z,22.50
2018-01-15T06:45:41.166Z,25.50
2018-01-15T06:46:41.142Z,25.40
2018-01-15T06:47:41.119Z,25.80
2018-01-15T06:48:41.098Z,26.40
2018-01-15T06:49:41.078Z,25.50
2018-01-15T06:50:41.049Z,27.40
2018-01-15T06:51:41.029Z,25.10
2018-01-15T06:52:41.008Z,25.90
2018-01-15T06:53:40.985Z,26.60
2018-01-15T06:54:40.959Z,26.80
2018-01-15T06:55:40.933Z,26.50
2018-01-15T06:56:40.914Z,26.90
2018-01-15T06:57:40.890Z,24.90
2018-01-15T06:58:40.870Z,28.00
2018-01-15T06:59:40.844Z,23.60
2018-01-15T07:00:40.820Z,26.70
2018-01-15T07:01:40.801Z,25.70
2018-01-15T07:02:40.780Z,25.20
2018-01-15T07:03:40.756Z,27.70
2018-01-15T07:04:40.740Z,26.10
2018-01-15T07:05:40.720Z,24.90
2018-01-15T07:06:40.686Z,25.60
2018-01-15T07:07:40.661Z,25.90
2018-01-15T07:08:40.689Z,27.90
2018-01-15T07:09:40.612Z,26.10
2018-01-15T07:10:40.602Z,25.10
2018-01-15T07:11:40.575Z,26.40
2018-01-15T07:12:40.554Z,25.50
2018-01-15T07:13:40.531Z,23.50
2018-01-15T07:14:40.503Z,23.90
2018-01-15T07:15:40.480Z,24.90
2018-01-15T07:16:40.456Z,22.80
2018-01-15T07:17:40.429Z,22.70
2018-01-15T07:18:40.412Z,27.00
2018-01-15T07:19:40.389Z,27.10
2018-01-15T07:20:40.366Z,24.20
2018-01-15T07:21:40.340Z,26.10
2018-01-15T07:22:40.321Z,25.20
2018-01-15T07:23:40.298Z,26.10
2018-01-15T07:24:40.271Z,25.70
2018-01-15T07:25:40.251Z,26.30
2018-01-15T07:26:40.227Z,26.20
2018-01-15T07:27:40.210Z,25.40
2018-01-15T07:28:40.180Z,25.60
2018-01-15T07:29:40.158Z,27.00
2018-01-15T07:30:40.141Z,24.60
2018-01-15T07:31:40.112Z,21.90
2018-01-15T07:32:40.086Z,25.90
2018-01-15T07:33:40.076Z,26.20
2018-01-15T07:34:40.040Z,26.40
2018-01-15T07:35:40.019Z,25.80
2018-01-15T07:36:39.994Z,28.00
2018-01-15T07:37:39.972Z,26.70
2018-01-15T07:38:39.950Z,25.10
2018-01-15T07:39:39.928Z,25.10
2018-01-15T07:40:39.904Z,27.70
2018-01-15T07:41:39.879Z,22.10
2018-01-15T07:42:39.859Z,24.50
2018-01-15T07:43:39.840Z,25.60
2018-01-15T07:44:39.812Z,24.80
2018-01-15T07:45:39.790Z,25.60
2018-01-15T07:46:39.768Z,23.40
2018-01-15T07:47:39.749Z,26.30
2018-01-15T07:48:39.720Z,25.40
2018-01-15T07:49:39.704Z,25.00
2018-01-15T07:50:39.681Z,25.70
2018-01-15T07:51:39.650Z,23.50
2018-01-15T07:52:39.631Z,23.90
2018-01-15T07:53:39.641Z,24.90
2018-01-15T07:54:39.590Z,24.80
2018-01-15T07:55:39.570Z,25.30
2018-01-15T07:56:39.539Z,24.60
2018-01-15T07:57:39.522Z,23.50
2018-01-15T07:58:39.492Z,26.30
2018-01-15T07:59:39.470Z,26.10
2018-01-15T08:00:39.457Z,28.70
2018-01-15T08:01:39.431Z,23.50
2018-01-15T08:02:39.401Z,25.50
2018-01-15T08:03:39.380Z,24.80
2018-01-15T08:04:39.361Z,25.20
2018-01-15T08:05:39.334Z,25.20
2018-01-15T08:06:39.311Z,25.50
2018-01-15T08:07:39.287Z,26.90
2018-01-15T08:08:39.271Z,24.90
2018-01-15T08:09:39.248Z,26.00
2018-01-15T08:10:39.221Z,26.10
2018-01-15T08:11:39.203Z,25.40
2018-01-15T08:12:39.177Z,24.30
2018-01-15T08:13:39.162Z,28.10
2018-01-15T08:14:39.135Z,29.70
2018-01-15T08:15:39.114Z,25.10
2018-01-15T08:16:39.084Z,24.80
2018-01-15T08:17:39.061Z,26.10
2018-01-15T08:18:39.038Z,24.60
2018-01-15T08:19:39.021Z,24.50
2018-01-15T08:20:39.000Z,22.80
2018-01-15T08:21:38.972Z,30.80
2018-01-15T08:22:38.952Z,23.90
2018-01-15T08:23:38.934Z,24.80
2018-01-15T08:24:38.911Z,24.50
2018-01-15T08:25:38.881Z,25.20
2018-01-15T08:26:38.860Z,27.10
2018-01-15T08:27:38.837Z,23.80
2018-01-15T08:28:38.823Z,24.60
2018-01-15T08:29:38.791Z,24.60
2018-01-15T08:30:38.770Z,26.60
2018-01-15T08:31:38.750Z,27.90
2018-01-15T08:32:38.732Z,23.00
2018-01-15T08:33:38.750Z,24.60
2018-01-15T08:34:38.679Z,24.50
2018-01-15T08:35:38.709Z,25.00
2018-01-15T08:36:38.639Z,25.00
2018-01-15T08:37:38.613Z,25.70
2018-01-15T08:38:38.588Z,26.30
2018-01-15T08:39:38.565Z,24.30
2018-01-15T08:40:38.545Z,27.80
2018-01-15T08:41:38.520Z,25.80
2018-01-15T08:42:38.502Z,26.80
2018-01-15T08:43:38.482Z,25.80
2018-01-15T08:44:38.461Z,27.40
2018-01-15T08:45:38.430Z,25.20
2018-01-15T08:46:38.421Z,26.10
2018-01-15T08:47:38.402Z,26.80
2018-01-15T08:48:38.373Z,26.50
2018-01-15T08:49:38.369Z,24.40
2018-01-15T08:50:38.322Z,23.10
2018-01-15T08:51:38.308Z,25.70
2018-01-15T08:52:38.283Z,26.50
2018-01-15T08:53:38.259Z,25.10
2018-01-15T08:54:38.234Z,26.80
2018-01-15T08:55:38.212Z,24.10
2018-01-15T08:56:38.228Z,24.00
2018-01-15T08:57:38.168Z,25.70
2018-01-15T08:58:38.148Z,25.10
2018-01-15T08:59:38.119Z,24.80
2018-01-15T09:00:38.103Z,23.50
2018-01-15T09:01:38.079Z,23.70
2018-01-15T09:02:38.067Z,27.50
2018-01-15T09:03:38.035Z,25.30
2018-01-15T09:04:38.008Z,23.60
2018-01-15T09:05:37.992Z,26.30
2018-01-15T09:06:37.972Z,24.20
2018-01-15T09:07:37.946Z,25.00
2018-01-15T09:08:37.921Z,25.40
2018-01-15T09:09:37.901Z,26.90
2018-01-15T09:10:37.879Z,23.70
2018-01-15T09:11:37.861Z,21.90
2018-01-15T09:12:37.842Z,25.00
2018-01-15T09:13:37.820Z,26.00
2018-01-15T09:14:37.790Z,22.90
2018-01-15T09:15:37.771Z,22.00
2018-01-15T09:16:37.751Z,25.10
2018-01-15T09:17:37.729Z,22.90
2018-01-15T09:18:37.700Z,22.50
2018-01-15T09:19:37.680Z,25.00
2018-01-15T09:20:37.660Z,24.50
2018-01-15T09:21:37.640Z,26.80
2018-01-15T09:22:37.615Z,25.30
2018-01-15T09:23:37.593Z,26.90
2018-01-15T09:24:37.570Z,24.20
2018-01-15T09:25:37.550Z,21.90
2018-01-15T09:26:37.527Z,24.20
2018-01-15T09:27:37.507Z,20.70
2018-01-15T09:28:37.488Z,21.90
2018-01-15T09:29:37.471Z,23.60
2018-01-15T09:30:37.451Z,24.40
2018-01-15T09:31:37.417Z,22.20
2018-01-15T09:32:37.399Z,23.10
2018-01-15T09:33:37.376Z,21.90
2018-01-15T09:34:37.356Z,25.40
2018-01-15T09:35:37.330Z,24.40
2018-01-15T09:36:37.315Z,23.70
2018-01-15T09:37:37.291Z,24.60
2018-01-15T09:38:37.270Z,23.40
2018-01-15T09:39:37.299Z,26.20
2018-01-15T09:40:37.233Z,22.50
2018-01-15T09:41:37.316Z,23.60
2018-01-15T09:42:37.180Z,22.30
2018-01-15T09:43:37.296Z,22.70
2018-01-15T09:44:37.168Z,21.80
2018-01-15T09:45:37.176Z,23.80
2018-01-15T09:46:37.100Z,21.00
2018-01-15T09:47:37.336Z,23.40
2018-01-15T09:48:37.051Z,21.90
2018-01-15T09:49:37.041Z,23.50
2018-01-15T09:50:37.010Z,23.10
2018-01-15T09:51:36.993Z,19.00
2018-01-15T09:52:36.969Z,24.00
2018-01-15T09:53:36.946Z,24.20
2018-01-15T09:54:36.930Z,21.40
2018-01-15T09:55:36.900Z,22.30
2018-01-15T09:56:36.878Z,24.70
2018-01-15T09:57:36.856Z,22.60
2018-01-15T09:58:36.841Z,23.20
2018-01-15T09:59:36.818Z,21.30
2018-01-15T10:00:36.797Z,24.10
2018-01-15T10:01:36.770Z,22.20
2018-01-15T10:02:36.748Z,25.50
2018-01-15T10:03:36.731Z,24.40
2018-01-15T10:04:36.710Z,22.60
2018-01-15T10:05:36.691Z,22.90
2018-01-15T10:06:36.670Z,19.90
2018-01-15T10:07:36.644Z,21.90
2018-01-15T10:08:36.623Z,21.30
2018-01-15T10:09:36.603Z,23.80
2018-01-15T10:10:36.580Z,23.40
2018-01-15T10:11:36.563Z,21.10
2018-01-15T10:12:36.539Z,22.20
2018-01-15T10:13:36.521Z,20.70
2018-01-15T10:14:36.503Z,18.10
2018-01-15T10:15:36.477Z,18.30
2018-01-15T10:16:36.463Z,21.80
2018-01-15T10:17:36.435Z,22.10
2018-01-15T10:18:36.418Z,21.10
2018-01-15T10:19:36.394Z,21.90
2018-01-15T10:20:36.371Z,21.20
2018-01-15T10:21:36.350Z,21.80
2018-01-15T10:22:36.328Z,19.60
2018-01-15T10:23:36.310Z,20.10
2018-01-15T10:24:36.287Z,21.20
2018-01-15T10:25:36.271Z,19.80
2018-01-15T10:26:36.246Z,21.50
2018-01-15T10:27:36.226Z,20.90
2018-01-15T10:28:36.213Z,23.30
2018-01-15T10:29:36.188Z,20.70
2018-01-15T10:30:36.161Z,19.30
2018-01-15T10:31:36.142Z,20.00
2018-01-15T10:32:36.129Z,21.20
2018-01-15T10:33:36.105Z,22.60
2018-01-15T10:34:36.085Z,18.50
2018-01-15T10:35:36.061Z,23.30
2018-01-15T10:36:36.041Z,22.60
2018-01-15T10:37:36.020Z,21.20
2018-01-15T10:38:36.001Z,19.10
2018-01-15T10:39:35.979Z,19.30
2018-01-15T10:40:35.964Z,20.00
2018-01-15T10:41:35.940Z,20.90
2018-01-15T10:42:35.918Z,21.70
2018-01-15T10:43:35.898Z,19.00
2018-01-15T10:44:35.878Z,19.90
2018-01-15T10:45:35.854Z,22.90
2018-01-15T10:46:35.831Z,18.10
2018-01-15T10:47:35.816Z,18.70
2018-01-15T10:48:35.791Z,21.30
2018-01-15T10:49:35.770Z,20.70
2018-01-15T10:50:35.750Z,20.30
2018-01-15T10:51:35.729Z,19.10
2018-01-15T10:52:35.719Z,18.40
2018-01-15T10:53:35.697Z,19.30
2018-01-15T10:54:35.667Z,19.00
2018-01-15T10:55:35.645Z,21.10
2018-01-15T10:56:35.630Z,19.30
2018-01-15T10:57:35.602Z,20.20
2018-01-15T10:58:35.590Z,20.20
2018-01-15T10:59:35.568Z,18.20
2018-01-15T11:00:35.540Z,19.90
2018-01-15T11:01:35.520Z,17.60
2018-01-15T11:02:35.501Z,19.10
2018-01-15T11:03:35.482Z,20.30
2018-01-15T11:04:35.460Z,19.30
2018-01-15T11:05:35.439Z,17.40
2018-01-15T11:06:35.416Z,20.40
2018-01-15T11:07:35.402Z,17.80
2018-01-15T11:08:35.379Z,19.90
2018-01-15T11:09:35.358Z,17.10
2018-01-15T11:10:35.342Z,18.50
2018-01-15T11:11:35.331Z,18.10
2018-01-15T11:12:35.297Z,20.20
2018-01-15T11:13:35.280Z,18.50
2018-01-15T11:14:35.287Z,17.20
2018-01-15T11:15:35.236Z,17.50
2018-01-15T11:16:35.213Z,18.80
2018-01-15T11:17:35.189Z,16.70
2018-01-15T11:18:35.170Z,17.90
2018-01-15T11:20:35.128Z,17.30
2018-01-15T11:21:35.108Z,18.10
2018-01-15T11:22:35.087Z,16.90
2018-01-15T11:23:35.069Z,16.60
2018-01-15T11:24:35.049Z,18.20
2018-01-15T11:25:35.090Z,19.70
2018-01-15T11:26:35.014Z,18.30
2018-01-15T11:27:34.985Z,17.20
2018-01-15T11:28:34.979Z,16.60
2018-01-15T11:29:34.954Z,16.30
2018-01-15T11:30:34.931Z,16.60
2018-01-15T11:31:34.920Z,16.10
2018-01-15T11:32:34.892Z,15.80
2018-01-15T11:33:34.873Z,16.20
2018-01-15T11:34:34.846Z,14.30
2018-01-15T11:35:34.824Z,16.70
2018-01-15T11:36:34.810Z,16.60
2018-01-15T11:37:34.784Z,16.10
2018-01-15T11:38:34.762Z,16.30
2018-01-15T11:39:34.754Z,15.70
2018-01-15T11:40:34.732Z,16.80
2018-01-15T11:41:34.702Z,15.30
2018-01-15T11:42:34.685Z,13.70
2018-01-15T11:43:34.661Z,14.10
2018-01-15T11:44:34.640Z,18.70
2018-01-15T11:45:34.620Z,16.10
2018-01-15T11:46:34.601Z,14.20
2018-01-15T11:47:34.580Z,15.50
2018-01-15T11:48:34.558Z,14.30
2018-01-15T11:49:34.540Z,16.00
2018-01-15T11:50:34.519Z,14.30
2018-01-15T11:51:34.507Z,15.00
2018-01-15T11:52:34.480Z,15.80
2018-01-15T11:53:34.459Z,16.10
2018-01-15T11:54:34.442Z,16.30
2018-01-15T11:55:34.419Z,18.30
2018-01-15T11:56:34.398Z,15.10
2018-01-15T11:57:34.381Z,15.70
2018-01-15T11:58:34.360Z,15.00
2018-01-15T11:59:34.349Z,16.00
2018-01-15T12:00:34.318Z,14.90
2018-01-15T12:01:34.297Z,17.10
2018-01-15T12:02:34.282Z,15.10
2018-01-15T12:03:34.255Z,13.90
2018-01-15T12:04:34.239Z,13.90
2018-01-15T12:05:34.215Z,13.60
2018-01-15T12:06:34.194Z,16.70
2018-01-15T12:07:34.175Z,14.90
2018-01-15T12:08:34.156Z,14.70
2018-01-15T12:09:34.135Z,13.10
2018-01-15T12:10:34.123Z,14.50
2018-01-15T12:11:34.101Z,12.40
2018-01-15T12:12:34.078Z,12.90
2018-01-15T12:13:34.049Z,14.10
2018-01-15T12:14:34.038Z,15.70
2018-01-15T12:15:34.021Z,15.50
2018-01-15T12:16:33.990Z,15.10
2018-01-15T12:17:33.970Z,13.20
2018-01-15T12:18:33.951Z,15.30
2018-01-15T12:19:33.933Z,18.00
2018-01-15T12:20:33.909Z,13.70
2018-01-15T12:21:33.916Z,15.10
2018-01-15T12:22:33.872Z,14.30
2018-01-15T12:23:33.850Z,13.00
2018-01-15T12:24:33.829Z,13.20
2018-01-15T12:25:33.812Z,14.40
2018-01-15T12:26:33.792Z,16.10
2018-01-15T12:27:33.769Z,16.20
2018-01-15T12:28:33.751Z,13.10
2018-01-15T12:29:33.730Z,14.30
2018-01-15T12:30:33.711Z,13.70
2018-01-15T12:31:33.690Z,13.50
2018-01-15T12:32:33.676Z,14.00
2018-01-15T12:33:33.646Z,13.30
2018-01-15T12:34:33.631Z,14.70
2018-01-15T12:35:33.608Z,14.80
2018-01-15T12:36:33.594Z,13.80
2018-01-15T12:37:33.567Z,12.50
2018-01-15T12:38:33.557Z,13.90
2018-01-15T12:39:33.530Z,14.70
2018-01-15T12:40:33.515Z,12.60
2018-01-15T12:41:33.494Z,13.40
2018-01-15T12:42:33.472Z,13.60
2018-01-15T12:43:33.459Z,13.60
2018-01-15T12:44:33.428Z,13.90
2018-01-15T12:45:33.402Z,12.20
2018-01-15T12:46:33.441Z,15.70
2018-01-15T12:47:33.361Z,13.20
2018-01-15T12:48:33.356Z,15.20
2018-01-15T12:49:33.320Z,13.90
2018-01-15T12:50:33.299Z,13.40
2018-01-15T12:51:33.278Z,12.50
2018-01-15T12:52:33.264Z,13.00
2018-01-15T12:53:33.239Z,10.80